createdAt,value
2023-05-18T00:01:23.149Z,98963.63
2023-05-18T00:04:06.667Z,98963.28
2023-05-18T00:06:51.532Z,98972.38
2023-05-18T00:09:50.127Z,98965.78
2023-05-18T00:12:38.558Z,98971.69
2023-05-18T00:15:22.736Z,98967.81
2023-05-18T00:17:50.887Z,98970.00
2023-05-18T00:20:18.865Z,98974.22
2023-05-18T00:22:48.430Z,98972.00
2023-05-18T00:25:15.370Z,98974.06
2023-05-18T00:27:42.292Z,98978.44
2023-05-18T00:30:09.826Z,98975.97
2023-05-18T00:32:36.777Z,98980.84
2023-05-18T00:35:04.026Z,98979.28
2023-05-18T00:37:30.951Z,98979.19
2023-05-18T00:39:57.902Z,98984.03
2023-05-18T00:42:24.880Z,98976.28
2023-05-18T00:44:51.793Z,98978.28
2023-05-18T00:47:21.187Z,98982.50
2023-05-18T00:49:48.202Z,98986.94
2023-05-18T00:52:16.588Z,98988.91
2023-05-18T00:54:43.942Z,98987.59
2023-05-18T00:57:10.928Z,98982.34
2023-05-18T00:59:37.890Z,98988.13
2023-05-18T01:02:05.928Z,98983.94
2023-05-18T01:04:33.050Z,98994.97
2023-05-18T01:07:16.388Z,98993.28
2023-05-18T01:10:03.452Z,98990.28
2023-05-18T01:12:58.856Z,98994.97
2023-05-18T01:16:05.982Z,99000.69
2023-05-18T01:19:15.299Z,98997.00
2023-05-18T01:21:54.386Z,99003.69
2023-05-18T01:24:32.137Z,99006.72
2023-05-18T01:27:01.190Z,99002.84
2023-05-18T01:29:31.221Z,99010.78
2023-05-18T01:31:58.479Z,99013.63
2023-05-18T01:34:25.785Z,99010.06
2023-05-18T01:36:52.776Z,99014.09
2023-05-18T01:39:19.826Z,99019.16
2023-05-18T01:41:55.523Z,99007.16
2023-05-18T01:44:34.500Z,99008.47
2023-05-18T01:47:12.713Z,99016.88
2023-05-18T01:49:44.743Z,99011.34
2023-05-18T01:52:23.316Z,99015.72
2023-05-18T01:54:56.942Z,99013.72
2023-05-18T01:57:27.488Z,99023.00
2023-05-18T01:59:55.699Z,99021.63
2023-05-18T02:02:22.811Z,99026.66
2023-05-18T02:04:49.898Z,99026.00
2023-05-18T02:07:16.903Z,99030.06
2023-05-18T02:09:44.635Z,99032.75
2023-05-18T02:12:12.032Z,99038.66
2023-05-18T02:14:39.497Z,99042.16
2023-05-18T02:17:07.397Z,99019.66
2023-05-18T02:19:38.404Z,99035.75
2023-05-18T02:22:07.180Z,99039.47
2023-05-18T02:24:34.779Z,99031.22
2023-05-18T02:27:02.360Z,99024.69
2023-05-18T02:29:29.286Z,99034.59
2023-05-18T02:31:56.408Z,99032.44
2023-05-18T02:34:24.968Z,99046.94
2023-05-18T02:36:51.975Z,99044.03
2023-05-18T02:39:18.924Z,99043.41
2023-05-18T02:41:46.046Z,99051.28
2023-05-18T02:44:13.299Z,99053.16
2023-05-18T02:46:42.320Z,99052.31
2023-05-18T02:49:10.441Z,99041.91
2023-05-18T02:51:39.365Z,99051.66
2023-05-18T02:54:08.333Z,99003.94
2023-05-18T02:56:35.510Z,99049.13
2023-05-18T02:59:06.587Z,99035.19
2023-05-18T03:01:37.556Z,99051.66
2023-05-18T03:04:04.632Z,99068.78
2023-05-18T03:06:32.493Z,99053.66
2023-05-18T03:08:59.452Z,99060.38
2023-05-18T03:11:29.323Z,99064.25
2023-05-18T03:13:56.423Z,99064.94
2023-05-18T03:16:28.574Z,99061.41
2023-05-18T03:18:56.093Z,99059.41
2023-05-18T03:21:23.111Z,99065.09
2023-05-18T03:23:50.056Z,99071.50
2023-05-18T03:26:17.123Z,99075.91
2023-05-18T03:28:44.059Z,99070.00
2023-05-18T03:31:11.313Z,99064.09
2023-05-18T03:33:40.697Z,99064.75
2023-05-18T03:36:08.931Z,99069.97
2023-05-18T03:38:36.713Z,99076.53
2023-05-18T03:41:04.588Z,99068.97
2023-05-18T03:43:33.157Z,99077.56
2023-05-18T03:46:00.616Z,99079.72
2023-05-18T03:48:28.383Z,99086.13
2023-05-18T03:50:55.749Z,99067.84
2023-05-18T03:53:23.939Z,99082.41
2023-05-18T03:55:52.409Z,99088.50
2023-05-18T03:58:22.883Z,99094.38
2023-05-18T04:00:51.294Z,99091.19
2023-05-18T04:03:18.378Z,99096.41
2023-05-18T04:05:46.187Z,99093.34
2023-05-18T04:08:16.233Z,99106.16
2023-05-18T04:10:43.953Z,99109.19
2023-05-18T04:13:11.662Z,99103.44
2023-05-18T04:15:38.819Z,99105.44
2023-05-18T04:18:05.858Z,99112.50
2023-05-18T04:20:32.945Z,99103.47
2023-05-18T04:23:00.344Z,99110.69
2023-05-18T04:25:28.565Z,99114.56
2023-05-18T04:27:56.848Z,99105.47
2023-05-18T04:30:23.942Z,99118.59
2023-05-18T04:32:51.262Z,99113.88
2023-05-18T04:35:18.808Z,99116.41
2023-05-18T04:37:45.851Z,99120.75
2023-05-18T04:40:14.310Z,99123.28
2023-05-18T04:42:45.838Z,99118.75
2023-05-18T04:45:16.643Z,99124.63
2023-05-18T04:47:47.597Z,99126.34
2023-05-18T04:50:17.894Z,99122.97
2023-05-18T04:52:49.275Z,99129.34
2023-05-18T04:55:26.590Z,99131.19
2023-05-18T04:57:57.128Z,99124.97
2023-05-18T05:00:29.487Z,99127.47
2023-05-18T05:02:58.186Z,99133.31
2023-05-18T05:05:26.565Z,99134.84
2023-05-18T05:07:54.064Z,99127.63
2023-05-18T05:10:21.956Z,99132.81
2023-05-18T05:12:51.278Z,99133.81
2023-05-18T05:15:19.065Z,99125.94
2023-05-18T05:17:49.657Z,99129.63
2023-05-18T05:20:17.094Z,99130.44
2023-05-18T05:22:44.117Z,99130.25
2023-05-18T05:25:11.555Z,99131.25
2023-05-18T05:27:38.723Z,99145.22
2023-05-18T05:30:06.356Z,99149.09
2023-05-18T05:32:33.528Z,99156.19
2023-05-18T05:35:00.503Z,99155.50
2023-05-18T05:37:27.485Z,99155.03
2023-05-18T05:39:54.579Z,99142.38
2023-05-18T05:42:21.757Z,99150.13
2023-05-18T05:44:48.712Z,99155.03
2023-05-18T05:47:15.916Z,99153.16
2023-05-18T05:49:42.848Z,99148.09
2023-05-18T05:52:09.767Z,99160.91
2023-05-18T05:54:36.708Z,99162.59
2023-05-18T05:57:04.169Z,99161.25
2023-05-18T05:59:31.120Z,99165.13
2023-05-18T06:01:58.176Z,99178.75
2023-05-18T06:04:25.282Z,99179.75
2023-05-18T06:06:52.329Z,99170.81
2023-05-18T06:09:19.286Z,99189.00
2023-05-18T06:11:46.323Z,99187.59
2023-05-18T06:14:13.419Z,99193.28
2023-05-18T06:16:40.471Z,99190.44
2023-05-18T06:19:07.516Z,99192.44
2023-05-18T06:21:34.611Z,99192.13
2023-05-18T06:24:02.194Z,99192.09
2023-05-18T06:26:29.380Z,99187.91
2023-05-18T06:28:56.459Z,99184.88
2023-05-18T06:31:23.866Z,99198.59
2023-05-18T06:33:50.995Z,99203.09
2023-05-18T06:36:17.939Z,99208.97
2023-05-18T06:38:45.010Z,99210.66
2023-05-18T06:41:12.138Z,99206.78
2023-05-18T06:43:39.109Z,99216.03
2023-05-18T06:46:06.286Z,99213.50
2023-05-18T06:48:33.257Z,99217.16
2023-05-18T06:51:00.215Z,99213.06
2023-05-18T06:53:27.630Z,99219.44
2023-05-18T06:55:54.576Z,99217.81
2023-05-18T06:58:21.739Z,99219.31
2023-05-18T07:00:49.559Z,99219.25
2023-05-18T07:03:16.768Z,99219.03
2023-05-18T07:05:43.795Z,99218.13
2023-05-18T07:08:10.851Z,99219.59
2023-05-18T07:10:37.969Z,99222.44
2023-05-18T07:13:04.912Z,99231.31
2023-05-18T07:15:32.214Z,99223.84
2023-05-18T07:17:59.444Z,99227.53
2023-05-18T07:20:27.080Z,99220.53
2023-05-18T07:22:56.047Z,99230.50
2023-05-18T07:25:23.740Z,99234.72
2023-05-18T07:27:52.427Z,99235.75
2023-05-18T07:30:19.448Z,99240.44
2023-05-18T07:32:46.537Z,99236.25
2023-05-18T07:35:13.525Z,99240.75
2023-05-18T07:37:40.484Z,99241.59
2023-05-18T07:40:10.066Z,99241.66
2023-05-18T07:42:39.732Z,99242.53
2023-05-18T07:45:08.138Z,99244.34
2023-05-18T07:47:35.178Z,99251.47
2023-05-18T07:50:02.334Z,99212.59
2023-05-18T07:52:29.300Z,99257.13
2023-05-18T07:54:59.954Z,99258.16
2023-05-18T07:57:27.336Z,99246.59
2023-05-18T07:59:54.353Z,99246.31
2023-05-18T08:02:21.374Z,99254.88
2023-05-18T08:04:48.765Z,99251.25
2023-05-18T08:07:15.748Z,99238.88
2023-05-18T08:09:42.716Z,99251.16
2023-05-18T08:12:09.798Z,99254.72
2023-05-18T08:14:36.847Z,99248.00
2023-05-18T08:17:05.028Z,99254.78
2023-05-18T08:19:32.137Z,99263.50
2023-05-18T08:21:59.284Z,99253.63
2023-05-18T08:24:26.325Z,99264.38
2023-05-18T08:26:53.497Z,99261.56
2023-05-18T08:29:20.591Z,99261.53
2023-05-18T08:31:49.195Z,99265.63
2023-05-18T08:34:16.863Z,99261.69
2023-05-18T08:36:46.008Z,99261.41
2023-05-18T08:39:13.381Z,99262.06
2023-05-18T08:41:49.138Z,99257.03
2023-05-18T08:44:21.343Z,99266.84
2023-05-18T08:46:51.697Z,99263.97
2023-05-18T08:49:21.029Z,99266.13
2023-05-18T08:51:54.738Z,99266.66
2023-05-18T08:54:23.313Z,99266.19
2023-05-18T08:56:52.868Z,99265.19
2023-05-18T08:59:24.545Z,99264.50
2023-05-18T09:01:52.709Z,99267.56
2023-05-18T09:04:21.209Z,99265.94
2023-05-18T09:06:49.813Z,99263.75
2023-05-18T09:09:18.566Z,99264.56
2023-05-18T09:11:47.476Z,99266.41
2023-05-18T09:14:14.761Z,99268.28
2023-05-18T09:16:41.812Z,99267.84
2023-05-18T09:19:08.882Z,99261.66
2023-05-18T09:21:36.076Z,99266.41
2023-05-18T09:24:03.593Z,99268.16
2023-05-18T09:26:31.204Z,99262.63
2023-05-18T09:28:59.712Z,99257.13
2023-05-18T09:31:28.082Z,99266.66
2023-05-18T09:33:55.191Z,99263.94
2023-05-18T09:36:26.602Z,99266.50
2023-05-18T09:38:53.721Z,99262.16
2023-05-18T09:41:22.046Z,99266.22
2023-05-18T09:43:49.345Z,99271.75
2023-05-18T09:46:16.395Z,99266.34
2023-05-18T09:48:46.313Z,99275.47
2023-05-18T09:51:17.100Z,99278.88
2023-05-18T09:53:49.799Z,99277.31
2023-05-18T09:56:18.353Z,99272.97
2023-05-18T09:58:46.309Z,99279.88
2023-05-18T10:01:13.606Z,99253.63
2023-05-18T10:03:40.774Z,99275.63
2023-05-18T10:06:14.881Z,99264.66
2023-05-18T10:08:42.050Z,99276.25
2023-05-18T10:11:09.470Z,99277.41
2023-05-18T10:13:36.507Z,99269.78
2023-05-18T10:16:06.167Z,99275.19
2023-05-18T10:18:35.887Z,99275.19
2023-05-18T10:21:06.098Z,99260.75
2023-05-18T10:23:35.905Z,99273.78
2023-05-18T10:26:08.114Z,99276.31
2023-05-18T10:28:50.370Z,99273.81
2023-05-18T10:31:17.484Z,99259.34
2023-05-18T10:33:46.649Z,99276.06
2023-05-18T10:36:13.745Z,99267.03
2023-05-18T10:38:45.543Z,99273.94
2023-05-18T10:41:12.967Z,99266.06
2023-05-18T10:43:42.239Z,99268.53
2023-05-18T10:46:10.178Z,99267.09
2023-05-18T10:48:41.132Z,99265.03
2023-05-18T10:51:08.633Z,99270.38
2023-05-18T10:53:37.009Z,99263.53
2023-05-18T10:56:04.606Z,99268.09
2023-05-18T10:58:33.078Z,99263.66
2023-05-18T11:01:03.492Z,99260.75
2023-05-18T11:03:33.447Z,99266.41
2023-05-18T11:06:11.759Z,99264.00
2023-05-18T11:08:49.642Z,99260.75
2023-05-18T11:11:19.354Z,99256.94
2023-05-18T11:13:50.530Z,99252.19
2023-05-18T11:16:18.838Z,99250.34
2023-05-18T11:18:46.800Z,99237.72
2023-05-18T11:21:29.201Z,99258.53
2023-05-18T11:24:25.490Z,99263.47
2023-05-18T11:26:54.836Z,99266.81
2023-05-18T11:29:34.502Z,99271.84
2023-05-18T11:32:02.729Z,99268.47
2023-05-18T11:34:50.216Z,99275.88
2023-05-18T11:37:38.366Z,99273.63
2023-05-18T11:40:13.980Z,99288.47
2023-05-18T11:42:40.967Z,99279.72
2023-05-18T11:45:13.041Z,99286.41
2023-05-18T11:47:41.535Z,99282.75
2023-05-18T11:50:12.049Z,99285.28
2023-05-18T11:52:51.707Z,99285.09
2023-05-18T11:55:21.227Z,99286.56
2023-05-18T11:57:52.926Z,99285.94
2023-05-18T12:00:20.681Z,99290.97
2023-05-18T12:02:49.530Z,99296.28
2023-05-18T12:05:17.492Z,99287.78
2023-05-18T12:07:45.320Z,99291.28
2023-05-18T12:10:17.469Z,99286.81
2023-05-18T12:12:49.545Z,99295.00
2023-05-18T12:15:17.456Z,99280.56
2023-05-18T12:17:49.077Z,99292.91
2023-05-18T12:20:21.698Z,99289.19
2023-05-18T12:22:52.800Z,99288.97
2023-05-18T12:25:21.864Z,99292.59
2023-05-18T12:27:50.009Z,99298.09
2023-05-18T12:30:21.742Z,99298.66
2023-05-18T12:32:54.294Z,99281.78
2023-05-18T12:35:24.575Z,99296.66
2023-05-18T12:37:52.124Z,99300.84
2023-05-18T12:40:20.771Z,99298.25
2023-05-18T12:42:55.203Z,99288.28
2023-05-18T12:45:27.959Z,99296.94
2023-05-18T12:47:56.448Z,99302.81
2023-05-18T12:50:27.125Z,99296.31
2023-05-18T12:52:56.755Z,99303.63
2023-05-18T12:55:25.478Z,99303.13
2023-05-18T12:58:04.019Z,99306.13
2023-05-18T13:00:35.736Z,99303.84
2023-05-18T13:03:14.815Z,99308.59
2023-05-18T13:05:47.087Z,99307.50
2023-05-18T13:08:16.653Z,99301.25
2023-05-18T13:10:44.382Z,99308.78
2023-05-18T13:13:15.163Z,99305.47
2023-05-18T13:15:43.980Z,99304.34
2023-05-18T13:18:12.248Z,99300.31
2023-05-18T13:20:51.103Z,99303.09
2023-05-18T13:23:20.107Z,99295.97
2023-05-18T13:25:47.832Z,99294.63
2023-05-18T13:28:17.150Z,99298.13
2023-05-18T13:30:47.398Z,99296.44
2023-05-18T13:33:15.246Z,99301.09
2023-05-18T13:35:43.271Z,99297.78
2023-05-18T13:38:14.374Z,99288.28
2023-05-18T13:40:42.233Z,99287.59
2023-05-18T13:43:11.193Z,99292.25
2023-05-18T13:45:40.542Z,99292.13
2023-05-18T13:48:10.090Z,99289.06
2023-05-18T13:50:37.944Z,99292.47
2023-05-18T13:53:05.117Z,99286.44
2023-05-18T13:55:33.494Z,99284.41
2023-05-18T13:58:01.172Z,99280.41
2023-05-18T14:00:28.369Z,99285.03
2023-05-18T14:02:56.871Z,99287.56
2023-05-18T14:05:24.325Z,99280.84
2023-05-18T14:07:54.672Z,99292.13
2023-05-18T14:10:21.799Z,99291.28
2023-05-18T14:12:48.952Z,99280.94
2023-05-18T14:15:16.157Z,99268.66
2023-05-18T14:17:43.944Z,99285.44
2023-05-18T14:20:12.843Z,99287.44
2023-05-18T14:22:41.021Z,99291.75
2023-05-18T14:25:08.445Z,99279.25
2023-05-18T14:27:35.425Z,99279.34
2023-05-18T14:30:02.708Z,99284.56
2023-05-18T14:32:29.872Z,99294.16
2023-05-18T14:35:00.295Z,99287.34
2023-05-18T14:37:27.302Z,99284.13
2023-05-18T14:39:54.216Z,99287.09
2023-05-18T14:42:21.290Z,99248.34
2023-05-18T14:44:48.316Z,99285.56
2023-05-18T14:47:15.370Z,99280.53
2023-05-18T14:49:42.320Z,99280.59
2023-05-18T14:52:09.556Z,99279.22
2023-05-18T14:54:36.914Z,99283.75
2023-05-18T14:57:04.238Z,99280.75
2023-05-18T14:59:31.355Z,99286.16
2023-05-18T15:01:58.499Z,99297.81
2023-05-18T15:04:26.018Z,99298.66
2023-05-18T15:06:53.069Z,99304.28
2023-05-18T15:09:20.024Z,99288.53
2023-05-18T15:11:46.997Z,99295.56
2023-05-18T15:14:14.028Z,99299.34
2023-05-18T15:16:41.325Z,99252.50
2023-05-18T15:19:08.610Z,99298.38
2023-05-18T15:21:35.631Z,99298.38
2023-05-18T15:24:02.590Z,99289.22
2023-05-18T15:26:29.581Z,99297.06
2023-05-18T15:28:56.720Z,99296.59
2023-05-18T15:31:23.708Z,99299.75
2023-05-18T15:33:50.832Z,99302.91
2023-05-18T15:36:17.871Z,99305.69
2023-05-18T15:38:45.085Z,99310.75
2023-05-18T15:41:12.076Z,99310.91
2023-05-18T15:43:39.547Z,99308.13
2023-05-18T15:46:06.665Z,99303.50
2023-05-18T15:48:33.724Z,99314.09
2023-05-18T15:51:00.645Z,99313.34
2023-05-18T15:53:27.663Z,99322.84
2023-05-18T15:55:58.689Z,99312.03
2023-05-18T15:58:27.016Z,99319.06
2023-05-18T16:00:54.305Z,99322.81
2023-05-18T16:03:21.511Z,99316.56
2023-05-18T16:05:48.707Z,99321.28
2023-05-18T16:08:15.733Z,99324.00
2023-05-18T16:10:42.694Z,99315.47
2023-05-18T16:13:09.707Z,99327.91
2023-05-18T16:15:36.908Z,99327.72
2023-05-18T16:18:04.203Z,99324.84
2023-05-18T16:20:31.377Z,99325.84
2023-05-18T16:22:59.204Z,99330.22
2023-05-18T16:25:26.792Z,99328.88
2023-05-18T16:27:53.862Z,99337.47
2023-05-18T16:30:20.986Z,99332.59
2023-05-18T16:32:48.248Z,99328.53
2023-05-18T16:35:15.371Z,99329.22
2023-05-18T16:37:42.526Z,99337.81
2023-05-18T16:40:10.037Z,99342.53
2023-05-18T16:42:37.028Z,99330.91
2023-05-18T16:45:04.285Z,99337.31
2023-05-18T16:47:32.878Z,99338.69
2023-05-18T16:50:00.945Z,99339.00
2023-05-18T16:52:28.884Z,99328.19
2023-05-18T16:54:56.917Z,99331.94
2023-05-18T16:57:27.477Z,99334.44
2023-05-18T16:59:55.524Z,99338.47
2023-05-18T17:02:24.772Z,99340.53
2023-05-18T17:04:52.763Z,99302.13
2023-05-18T17:07:20.030Z,99335.44
2023-05-18T17:09:47.759Z,99337.63
2023-05-18T17:12:14.770Z,99345.41
2023-05-18T17:14:42.088Z,99351.16
2023-05-18T17:17:09.852Z,99346.41
2023-05-18T17:19:37.228Z,99340.53
2023-05-18T17:22:05.045Z,99339.00
2023-05-18T17:24:32.432Z,99343.38
2023-05-18T17:27:00.035Z,99352.97
2023-05-18T17:29:28.143Z,99347.28
2023-05-18T17:31:56.120Z,99355.88
2023-05-18T17:34:23.934Z,99347.44
2023-05-18T17:36:51.401Z,99338.88
2023-05-18T17:39:20.717Z,99334.84
2023-05-18T17:41:48.509Z,99339.06
2023-05-18T17:44:17.255Z,99340.41
2023-05-18T17:46:46.533Z,99340.06
2023-05-18T17:49:15.596Z,99343.25
2023-05-18T17:51:43.373Z,99345.59
2023-05-18T17:54:11.726Z,99344.44
2023-05-18T17:56:40.004Z,99342.75
2023-05-18T17:59:08.096Z,99341.25
2023-05-18T18:01:36.301Z,99332.66
2023-05-18T18:04:05.494Z,99337.91
2023-05-18T18:06:36.313Z,99338.25
2023-05-18T18:09:07.672Z,99337.38
2023-05-18T18:11:35.975Z,99346.16
2023-05-18T18:14:03.860Z,99336.38
2023-05-18T18:16:31.643Z,99339.41
2023-05-18T18:19:00.226Z,99339.22
2023-05-18T18:21:27.867Z,99331.63
2023-05-18T18:23:55.274Z,99337.00
2023-05-18T18:26:23.104Z,99338.06
2023-05-18T18:28:51.864Z,99338.41
2023-05-18T18:31:21.345Z,99339.56
2023-05-18T18:33:51.484Z,99338.06
2023-05-18T18:36:19.180Z,99339.75
2023-05-18T18:38:47.996Z,99342.91
2023-05-18T18:41:17.489Z,99344.44
2023-05-18T18:43:44.921Z,99334.81
2023-05-18T18:46:12.433Z,99337.69
2023-05-18T18:48:39.454Z,99337.69
2023-05-18T18:51:06.456Z,99338.69
2023-05-18T18:53:33.751Z,99338.53
2023-05-18T18:56:02.872Z,99343.94
2023-05-18T18:58:31.129Z,99342.78
2023-05-18T19:00:58.552Z,99346.44
2023-05-18T19:03:26.467Z,99347.78
2023-05-18T19:05:53.551Z,99342.91
2023-05-18T19:08:20.888Z,99339.69
2023-05-18T19:10:50.678Z,99341.03
2023-05-18T19:13:18.101Z,99337.00
2023-05-18T19:15:45.636Z,99345.47
2023-05-18T19:18:12.646Z,99340.22
2023-05-18T19:20:39.578Z,99338.34
2023-05-18T19:23:06.634Z,99342.63
2023-05-18T19:25:33.776Z,99349.47
2023-05-18T19:28:01.163Z,99342.75
2023-05-18T19:30:28.468Z,99347.13
2023-05-18T19:32:55.459Z,99343.44
2023-05-18T19:35:26.374Z,99342.91
2023-05-18T19:37:53.765Z,99337.00
2023-05-18T19:40:22.964Z,99344.59
2023-05-18T19:42:50.557Z,99344.44
2023-05-18T19:46:17.735Z,99343.59
2023-05-18T19:48:44.733Z,99336.50
2023-05-18T19:51:11.982Z,99346.28
2023-05-18T19:53:38.961Z,99340.22
2023-05-18T19:56:06.321Z,99346.13
2023-05-18T19:58:33.236Z,99350.47
2023-05-18T20:01:00.276Z,99353.53
2023-05-18T20:03:27.902Z,99353.53
2023-05-18T20:05:56.536Z,99353.53
2023-05-18T20:08:23.597Z,99354.41
2023-05-18T20:10:50.692Z,99351.53
2023-05-18T20:13:17.621Z,99354.72
2023-05-18T20:15:44.928Z,99360.28
2023-05-18T20:18:11.892Z,99359.13
2023-05-18T20:20:38.914Z,99360.25
2023-05-18T20:23:10.936Z,99365.28
2023-05-18T20:25:38.240Z,99361.78
2023-05-18T20:28:08.324Z,99361.59
2023-05-18T20:30:35.352Z,99357.56
2023-05-18T20:33:04.970Z,99365.47
2023-05-18T20:35:32.852Z,99360.25
2023-05-18T20:38:00.570Z,99360.91
2023-05-18T20:40:31.046Z,99362.59
2023-05-18T20:43:00.862Z,99363.09
2023-05-18T20:45:30.052Z,99363.25
2023-05-18T20:47:57.941Z,99361.75
2023-05-18T20:50:24.970Z,99368.00
2023-05-18T20:52:52.961Z,99364.44
2023-05-18T20:55:20.174Z,99355.22
2023-05-18T20:57:49.253Z,99357.91
2023-05-18T21:00:17.518Z,99363.59
2023-05-18T21:02:46.210Z,99364.44
2023-05-18T21:05:14.388Z,99363.59
2023-05-18T21:07:41.294Z,99361.09
2023-05-18T21:10:09.768Z,99373.03
2023-05-18T21:12:37.069Z,99370.03
2023-05-18T21:15:04.675Z,99370.53
2023-05-18T21:17:32.257Z,99364.59
2023-05-18T21:19:59.228Z,99364.44
2023-05-18T21:22:26.235Z,99370.84
2023-05-18T21:24:53.191Z,99361.25
2023-05-18T21:27:20.162Z,99365.44
2023-05-18T21:29:47.098Z,99371.19
2023-05-18T21:32:14.262Z,99367.63
2023-05-18T21:34:43.467Z,99365.59
2023-05-18T21:37:11.099Z,99366.97
2023-05-18T21:39:38.128Z,99346.94
2023-05-18T21:42:05.311Z,99364.28
2023-05-18T21:44:33.303Z,99362.94
2023-05-18T21:47:00.212Z,99360.56
2023-05-18T21:49:27.162Z,99364.09
2023-05-18T21:51:54.143Z,99345.41
2023-05-18T21:54:21.158Z,99353.81
2023-05-18T21:56:48.153Z,99358.56
2023-05-18T21:59:15.094Z,99358.22
2023-05-18T22:01:42.065Z,99365.94
2023-05-18T22:04:09.127Z,99361.88
2023-05-18T22:06:36.076Z,99358.50
2023-05-18T22:09:03.081Z,99363.22
2023-05-18T22:11:30.116Z,99360.84
2023-05-18T22:13:57.086Z,99355.47
2023-05-18T22:16:24.099Z,99361.03
2023-05-18T22:18:51.142Z,99362.56
2023-05-18T22:21:18.116Z,99362.75
2023-05-18T22:23:45.033Z,99364.94
2023-05-18T22:26:12.475Z,99352.13
2023-05-18T22:28:39.452Z,99358.66
2023-05-18T22:31:06.813Z,99350.41
2023-05-18T22:33:33.836Z,99350.41
2023-05-18T22:36:01.128Z,99350.41
2023-05-18T22:38:28.063Z,99354.81
2023-05-18T22:40:55.175Z,99353.63
2023-05-18T22:43:22.550Z,99348.56
2023-05-18T22:45:49.858Z,99350.63
2023-05-18T22:48:16.943Z,99349.59
2023-05-18T22:50:43.938Z,99356.31
2023-05-18T22:53:12.224Z,99349.41
2023-05-18T22:55:39.468Z,99346.38
2023-05-18T22:58:06.441Z,99345.03
2023-05-18T23:00:33.611Z,99349.91
2023-05-18T23:03:00.913Z,99349.41
2023-05-18T23:05:27.988Z,99349.72
2023-05-18T23:07:58.140Z,99338.09
2023-05-18T23:10:26.647Z,99338.09
2023-05-18T23:12:55.932Z,99338.63
2023-05-18T23:15:23.291Z,99334.41
2023-05-18T23:17:50.562Z,99334.72
2023-05-18T23:20:17.478Z,99346.66
2023-05-18T23:22:44.628Z,99350.91
2023-05-18T23:25:11.927Z,99346.38
2023-05-18T23:27:38.851Z,99349.41
2023-05-18T23:30:06.862Z,99344.53
2023-05-18T23:32:35.378Z,99338.94
2023-05-18T23:35:04.655Z,99325.69
2023-05-18T23:37:35.848Z,99341.00
2023-05-18T23:40:03.131Z,99335.59
2023-05-18T23:42:30.776Z,99345.19
2023-05-18T23:44:58.046Z,99334.41
2023-05-18T23:47:25.323Z,99335.59
2023-05-18T23:49:53.207Z,99334.56
2023-05-18T23:52:23.276Z,99335.09
2023-05-18T23:54:53.619Z,99338.94
2023-05-18T23:57:21.213Z,99329.72
2023-05-18T23:59:48.824Z,99329.16
